Billerica, MA

3:30 PM EDT on July 30, 2015 (GMT -0400)
River Pines | | Change Station
CLOSE
Current Station
Personal Weather Station
Location: Billerica, MA
Elevation: 154 ft
Nearby Weather Stations

Elev 154 ft 42.56 °N, 71.29 °W | Updated 5 seconds ago

Mostly Cloudy
Mostly Cloudy
87.4 °F
Feels Like 95 °F
N
0.0
Wind Variable Wind from West
Gusts 0.0 mph

Today
High -- | Low -- °F
--% Chance of Precip.
Yesterday
High -- | Low -- °F
Precip. -- in
5:34 AM 8:07 PM
Waxing Gibbous, 99% visible
Pressure 29.80 in
Visibility 10.0 miles
Clouds Few 3800 ft
Few 5000 ft
Scattered Clouds 6000 ft
Heat Index 95 °F
Dew Point 73 °F
Humidity 63%
Rainfall 0.00 in
Snow Depth Not available.
UV 4.0 out of 12
Pollen 5.10 out of 12
Air Quality Not available.
Flu Activity Not available.
METAR KBED 301856Z 22016G25KT 10SM FEW038 FEW050 SCT060 32/22 A2977 RMK AO2 SLP090 T03220217

More Conditions Fewer Conditions

Pressure 29.80 in
Visibility 10.0 miles
Clouds Few 3800 ft
Few 5000 ft
Scattered Clouds 6000 ft
Heat Index 95 °F
Dew Point 73 °F
Humidity 63%
Rainfall 0.00 in
Snow Depth Not available.
UV 4.0 out of 12
Pollen 5.10 out of 12
Air Quality Not available.
Flu Activity Not available.
METAR KBED 301856Z 22016G25KT 10SM FEW038 FEW050 SCT060 32/22 A2977 RMK AO2 SLP090 T03220217

More Conditions Fewer Conditions

10-Day Weather Forecast

×

Almanac

Astronomy

Jul. 30, 2015 Rise Set
Actual Time
Civil Twilight
Nautical Twilight
Astronomical Twilight
Moon
Length of Visible Light
Length of Day
Tomorrow will be .
, % of the Moon is Illuminated

Today's Extremes

State Highs State Lows

Community

WunderPhotos

Upload Photos

1,842,486 photos uploaded!

WunderBlogs® & News

Nearby

Air Quality

  Air Quality AQ Index Pollutant
Not available.

Snow Depth

Station Depth Elevation

Earthquake Activity

City Distance Mag. Time & Date
Minimum magnitude displayed is 2.5.

Coastal Water Temperatures

Place Temperature

Stations

Nearby Weather Stations

Station Location Temp. Windchill Dew Point Humidity Wind Precip. Elev Updated Type